Time;durP1;ratioP1;P1;durP2;ratioP2;P2;SDS_P1;SDS_P2;PMS_P1;PMS_P2;Temp;Humidity;BMP_temperature;BMP_pressure;BME280_temperature;BME280_humidity;BME280_pressure;Samples;Min_cycle;Max_cycle;Signal;HPM_P1;HPM_P2
2022/11/02 00:00:12;;;;;;;3.17;1.80;;;;;;;9.56;100.00;153815.41;5113141;28;20452;-89
2022/11/02 00:02:57;;;;;;;3.73;2.00;;;;;;;9.51;100.00;153802.47;5099566;28;20436;-89
2022/11/02 00:05:44;;;;;;;4.67;2.10;;;;;;;9.51;100.00;153801.16;5108327;28;20443;-89
2022/11/02 00:08:29;;;;;;;5.90;2.37;;;;;;;9.48;100.00;153794.69;5114025;28;20459;-89
2022/11/02 00:11:15;;;;;;;1.93;1.60;;;;;;;9.46;100.00;153789.53;5115094;27;20471;-76
2022/11/02 00:14:00;;;;;;;6.80;1.90;;;;;;;9.46;100.00;153789.53;5113599;28;20443;-76
2022/11/02 00:16:46;;;;;;;4.27;1.93;;;;;;;9.45;100.00;153786.94;5114880;28;20455;-76
2022/11/02 00:19:31;;;;;;;8.63;2.40;;;;;;;9.46;100.00;153789.53;5111825;28;20444;-76
2022/11/02 00:22:18;;;;;;;7.00;2.70;;;;;;;9.44;100.00;153784.38;5135484;27;20934;-76
2022/11/02 00:25:05;;;;;;;3.50;2.00;;;;;;;9.42;100.00;153779.22;5134148;27;20407;-76
2022/11/02 00:27:51;;;;;;;5.03;1.63;;;;;;;9.39;100.00;153770.13;5097182;28;20415;-76
2022/11/02 00:30:37;;;;;;;4.07;1.80;;;;;;;9.42;100.00;153779.22;5113517;27;20470;-76
2022/11/02 00:33:23;;;;;;;2.67;1.77;;;;;;;9.37;100.00;153766.22;5114125;28;20446;-76
2022/11/02 00:36:09;;;;;;;3.07;1.80;;;;;;;9.32;100.00;153753.31;5112996;28;20454;-76
2022/11/02 00:38:56;;;;;;;3.80;2.13;;;;;;;9.27;100.00;153740.38;5110239;27;20598;-76
2022/11/02 00:41:41;;;;;;;5.60;2.67;;;;;;;9.28;100.00;153742.97;5114082;28;20423;-76
2022/11/02 00:44:27;;;;;;;2.73;2.10;;;;;;;9.27;100.00;153740.38;5091605;28;20733;-76
2022/11/02 00:47:12;;;;;;;3.47;2.23;;;;;;;9.26;100.00;153737.81;5111581;27;20442;-76
2022/11/02 00:49:58;;;;;;;5.97;2.63;;;;;;;9.23;100.00;153730.03;5134154;27;20597;-76
2022/11/02 00:52:43;;;;;;;4.30;2.03;;;;;;;9.22;100.00;153727.44;5097810;28;20448;-76
2022/11/02 00:55:30;;;;;;;3.70;2.10;;;;;;;9.19;100.00;153720.97;5096999;28;20443;-75
2022/11/02 00:58:20;;;;;;;6.03;2.20;;;;;;;9.15;100.00;153709.34;5087805;28;20423;-76
2022/11/02 01:01:08;;;;;;;5.13;3.00;;;;;;;9.14;100.00;153706.75;5077265;28;20433;-77
2022/11/02 01:03:56;;;;;;;3.40;2.00;;;;;;;9.11;100.00;153698.97;5085147;28;20415;-76
2022/11/02 01:06:41;;;;;;;5.90;1.93;;;;;;;9.09;100.00;153693.81;5127205;27;20551;-76
2022/11/02 01:09:27;;;;;;;6.13;2.63;;;;;;;9.09;100.00;153695.13;5112326;28;20528;-76
2022/11/02 01:12:14;;;;;;;3.80;2.40;;;;;;;9.08;100.00;153691.25;5097750;28;20467;-75
2022/11/02 01:15:02;;;;;;;3.93;1.90;;;;;;;9.12;100.00;153701.59;5103586;27;20564;-76
2022/11/02 01:17:47;;;;;;;5.20;2.10;;;;;;;9.14;100.00;153706.75;5118802;27;20858;-76
2022/11/02 01:20:33;;;;;;;4.60;2.20;;;;;;;9.16;100.00;153713.22;5123234;27;20459;-75
2022/11/02 01:23:18;;;;;;;3.27;1.70;;;;;;;9.18;100.00;153717.13;5111185;27;20932;-76
2022/11/02 01:26:04;;;;;;;6.40;2.67;;;;;;;9.18;100.00;153717.13;5108965;28;20521;-76
2022/11/02 01:28:53;;;;;;;2.73;2.20;;;;;;;9.25;100.00;153733.91;5112628;28;20475;-76
2022/11/02 01:31:38;;;;;;;7.13;2.40;;;;;;;9.37;100.00;153766.22;5096824;28;20525;-76
2022/11/02 01:34:24;;;;;;;5.03;2.20;;;;;;;9.41;100.00;153775.31;5114235;27;20495;-75
2022/11/02 01:37:09;;;;;;;2.23;2.00;;;;;;;9.47;100.00;153790.84;5134013;27;20480;-76
2022/11/02 01:39:55;;;;;;;4.00;2.27;;;;;;;9.49;100.00;153797.31;5111544;28;20448;-76
2022/11/02 01:42:40;;;;;;;2.70;2.50;;;;;;;9.56;100.00;153814.09;5110139;28;20491;-76
2022/11/02 01:45:27;;;;;;;3.80;2.60;;;;;;;9.56;100.00;153815.41;5095198;28;20447;-76
2022/11/02 01:48:13;;;;;;;3.23;2.40;;;;;;;9.56;100.00;153815.41;5113114;28;20505;-77
2022/11/02 01:51:01;;;;;;;4.03;1.93;;;;;;;9.57;100.00;153818.00;5115508;27;20442;-76
2022/11/02 01:53:48;;;;;;;3.93;2.53;;;;;;;9.61;100.00;153828.34;5102978;28;20463;-75
2022/11/02 01:56:33;;;;;;;3.00;2.30;;;;;;;9.62;100.00;153830.94;5112214;28;20459;-75
2022/11/02 01:59:21;;;;;;;3.80;2.73;;;;;;;9.62;100.00;153830.94;5103101;28;20987;-76
2022/11/02 02:02:15;;;;;;;2.60;2.30;;;;;;;9.60;100.00;153825.78;5100184;28;20893;-75
2022/11/02 02:05:06;;;;;;;5.70;2.30;;;;;;;9.62;100.00;153830.94;5118014;27;20459;-75
2022/11/02 02:07:52;;;;;;;6.80;3.07;;;;;;;9.61;100.00;153828.34;5111803;28;20779;-76
2022/11/02 02:10:38;;;;;;;4.03;2.70;;;;;;;9.60;100.00;153825.78;5127029;27;20426;-75
2022/11/02 02:13:25;;;;;;;3.47;2.60;;;;;;;9.59;100.00;153821.88;5117667;28;20537;-75
2022/11/02 02:16:15;;;;;;;5.67;1.97;;;;;;;9.60;100.00;153824.47;5110773;28;20493;-75
2022/11/02 02:19:05;;;;;;;4.00;2.00;;;;;;;9.60;100.00;153825.78;5115952;28;20594;-77
2022/11/02 02:22:04;;;;;;;6.30;4.07;;;;;;;9.60;100.00;153824.47;5111864;28;20454;-77
2022/11/02 02:24:58;;;;;;;4.13;1.97;;;;;;;9.60;100.00;153825.78;5096119;28;20463;-76
2022/11/02 02:27:59;;;;;;;3.83;2.10;;;;;;;9.58;100.00;153820.56;5103486;28;20454;-77
2022/11/02 02:30:49;;;;;;;3.07;2.40;;;;;;;9.61;100.00;153828.34;5115435;28;20940;-77
2022/11/02 02:33:36;;;;;;;3.00;1.97;;;;;;;9.62;100.00;153830.94;5096337;28;20786;-77
2022/11/02 02:36:28;;;;;;;3.03;2.17;;;;;;;9.61;100.00;153828.34;5090839;28;20497;-77
2022/11/02 02:39:17;;;;;;;3.10;2.40;;;;;;;9.60;100.00;153824.47;5120764;28;20505;-77
2022/11/02 02:42:09;;;;;;;2.67;2.07;;;;;;;9.58;100.00;153820.56;5096060;28;20584;-77
2022/11/02 02:44:59;;;;;;;2.17;1.73;;;;;;;9.56;100.00;153814.09;5110101;28;20513;-76
2022/11/02 02:47:47;;;;;;;3.13;1.80;;;;;;;9.55;100.00;153811.53;5091285;28;20489;-77
2022/11/02 02:50:36;;;;;;;3.33;2.90;;;;;;;9.55;100.00;153811.53;5105202;28;20447;-77
2022/11/02 02:53:25;;;;;;;4.07;2.10;;;;;;;9.53;100.00;153807.63;5076992;28;20541;-76
2022/11/02 02:56:11;;;;;;;5.83;2.90;;;;;;;9.54;100.00;153808.94;5129713;28;20475;-77
2022/11/02 02:59:00;;;;;;;3.40;1.80;;;;;;;9.54;100.00;153810.25;5099577;28;20455;-77
2022/11/02 03:01:48;;;;;;;2.57;1.93;;;;;;;9.53;100.00;153806.38;5079224;28;20468;-77
2022/11/02 03:04:33;;;;;;;3.33;1.90;;;;;;;9.54;100.00;153810.25;5100645;28;20435;-77
2022/11/02 03:07:20;;;;;;;2.53;2.07;;;;;;;9.52;100.00;153805.06;5116027;28;20439;-77
2022/11/02 03:10:11;;;;;;;3.27;1.80;;;;;;;9.53;100.00;153806.38;5113686;28;20438;-77
2022/11/02 03:13:05;;;;;;;3.30;1.90;;;;;;;9.51;100.00;153801.16;5105919;27;20520;-76
2022/11/02 03:15:54;;;;;;;7.10;2.67;;;;;;;9.51;100.00;153802.47;5102943;28;20581;-76
2022/11/02 03:18:47;;;;;;;13.30;3.00;;;;;;;9.52;100.00;153805.06;5095306;28;20778;-76
2022/11/02 03:21:39;;;;;;;3.20;1.87;;;;;;;9.52;100.00;153803.78;5086117;27;20482;-76
2022/11/02 03:24:27;;;;;;;2.00;1.57;;;;;;;9.53;100.00;153806.38;5126007;27;20427;-76
2022/11/02 03:27:16;;;;;;;2.60;2.20;;;;;;;9.56;100.00;153815.41;5113893;28;20509;-76
2022/11/02 03:30:05;;;;;;;3.40;1.87;;;;;;;9.57;100.00;153818.00;5092268;28;20435;-76
2022/11/02 03:32:57;;;;;;;2.27;1.87;;;;;;;9.62;100.00;153830.94;5079813;28;20467;-76
2022/11/02 03:35:47;;;;;;;3.63;2.20;;;;;;;9.63;100.00;153832.25;5085794;28;20494;-76
2022/11/02 03:38:38;;;;;;;2.70;1.53;;;;;;;9.63;100.00;153833.53;5079660;28;20567;-76
2022/11/02 03:41:24;;;;;;;2.50;1.57;;;;;;;9.64;100.00;153834.81;5102986;28;20428;-76
2022/11/02 03:44:14;;;;;;;2.60;2.10;;;;;;;9.64;100.00;153836.09;5099094;28;20427;-76
2022/11/02 03:47:00;;;;;;;3.83;2.10;;;;;;;9.68;100.00;153846.47;5098421;28;21691;-76
2022/11/02 03:49:49;;;;;;;4.73;2.00;;;;;;;9.66;100.00;153841.25;5098988;28;20470;-76
2022/11/02 03:52:40;;;;;;;5.30;1.90;;;;;;;9.64;100.00;153834.81;5100118;28;20957;-76
2022/11/02 03:55:31;;;;;;;4.50;1.87;;;;;;;9.65;100.00;153838.72;5099037;28;20416;-76
2022/11/02 03:58:17;;;;;;;4.93;1.97;;;;;;;9.64;100.00;153834.81;5096765;28;20910;-76
2022/11/02 04:01:04;;;;;;;2.20;1.67;;;;;;;9.63;100.00;153833.53;5114357;28;20411;-76
2022/11/02 04:03:51;;;;;;;3.50;2.10;;;;;;;9.65;100.00;153838.72;5098319;28;20459;-76
2022/11/02 04:06:38;;;;;;;5.60;2.07;;;;;;;9.63;100.00;153833.53;5097067;28;20456;-76
2022/11/02 04:09:24;;;;;;;3.17;1.87;;;;;;;9.64;100.00;153836.09;5112929;28;20933;-76
2022/11/02 04:15:12;;;;;;;3.30;1.83;;;;;;;9.65;100.00;153838.72;5113241;28;20488;-76
2022/11/02 04:21:00;;;;;;;6.50;2.50;;;;;;;9.62;100.00;153830.94;5113419;28;20859;-76
2022/11/02 04:26:50;;;;;;;3.30;1.70;;;;;;;9.61;100.00;153827.06;5128260;27;20451;-76
2022/11/02 04:29:39;;;;;;;3.27;1.83;;;;;;;9.60;100.00;153824.47;5114957;27;20448;-76
2022/11/02 04:35:32;;;;;;;3.27;1.70;;;;;;;9.57;100.00;153818.00;5093625;28;20437;-76
2022/11/02 04:44:29;;;;;;;3.13;1.53;;;;;;;9.60;100.00;153825.78;5109536;27;20447;-76
2022/11/02 04:47:31;;;;;;;3.67;1.90;;;;;;;9.58;100.00;153820.56;5132068;27;20437;-76
2022/11/02 04:50:16;;;;;;;4.73;1.50;;;;;;;9.55;100.00;153812.84;5113469;28;20436;-76
2022/11/02 04:53:04;;;;;;;3.60;2.13;;;;;;;9.55;100.00;153812.84;5104930;27;20470;-76
2022/11/02 04:55:50;;;;;;;2.80;1.53;;;;;;;9.49;100.00;153797.31;5119595;27;20406;-76
2022/11/02 04:58:36;;;;;;;2.33;1.70;;;;;;;9.48;100.00;153794.69;5114660;27;20596;-76
2022/11/02 05:01:24;;;;;;;3.27;1.63;;;;;;;9.46;100.00;153789.53;5096891;28;20485;-89
2022/11/02 05:04:10;;;;;;;2.70;2.20;;;;;;;9.44;100.00;153783.06;5096029;28;20501;-89
2022/11/02 05:06:56;;;;;;;2.67;1.77;;;;;;;9.39;100.00;153771.44;5095960;28;20443;-89
2022/11/02 05:09:43;;;;;;;3.17;1.40;;;;;;;9.38;100.00;153768.84;5088936;28;20451;-89
2022/11/02 05:12:30;;;;;;;2.83;2.17;;;;;;;9.34;100.00;153758.50;5116899;27;20454;-88
2022/11/02 05:15:17;;;;;;;4.93;3.00;;;;;;;9.32;100.00;153753.31;5083600;28;21068;-88
2022/11/02 05:18:04;;;;;;;4.93;3.10;;;;;;;9.30;100.00;153748.13;5099215;28;20408;-88
2022/11/02 05:20:51;;;;;;;4.53;3.33;;;;;;;9.24;100.00;153732.59;5117981;27;20525;-87
2022/11/02 05:23:38;;;;;;;4.40;3.40;;;;;;;9.22;100.00;153726.13;5098219;28;20492;-89
2022/11/02 05:26:24;;;;;;;3.90;2.60;;;;;;;9.18;100.00;153718.41;5078599;28;20393;-89
2022/11/02 05:29:10;;;;;;;3.53;2.60;;;;;;;9.18;100.00;153718.41;5091249;28;20440;-88
2022/11/02 05:31:57;;;;;;;3.30;2.20;;;;;;;9.14;100.00;153706.75;5100414;28;20467;-88
2022/11/02 05:34:43;;;;;;;7.60;3.27;;;;;;;9.07;100.00;153688.66;5098211;28;20451;-88
2022/11/02 05:37:29;;;;;;;2.80;2.00;;;;;;;9.06;100.00;153686.06;5113491;28;20489;-89
2022/11/02 05:40:15;;;;;;;5.60;2.40;;;;;;;9.08;100.00;153691.25;5093709;28;20447;-89
2022/11/02 05:43:00;;;;;;;4.10;2.30;;;;;;;9.08;100.00;153691.25;5087989;28;20431;-89
2022/11/02 05:45:51;;;;;;;2.97;1.70;;;;;;;9.05;100.00;153684.75;5095654;28;20446;-76
2022/11/02 05:48:37;;;;;;;3.27;1.93;;;;;;;9.09;100.00;153693.81;5113106;27;20473;-76
2022/11/02 05:51:23;;;;;;;3.77;1.97;;;;;;;9.08;100.00;153691.25;5110519;28;20443;-76
2022/11/02 05:54:08;;;;;;;3.20;2.00;;;;;;;9.09;100.00;153693.81;5110682;28;20957;-76
2022/11/02 05:56:54;;;;;;;3.07;2.43;;;;;;;9.08;100.00;153691.25;5115003;27;20443;-76
2022/11/02 05:59:39;;;;;;;4.83;2.10;;;;;;;9.08;100.00;153692.50;5109781;28;20455;-76
2022/11/02 06:02:24;;;;;;;4.73;2.70;;;;;;;9.09;100.00;153693.81;5112513;28;20428;-76
2022/11/02 06:05:09;;;;;;;4.80;1.60;;;;;;;9.09;100.00;153693.81;5115092;27;20477;-76
2022/11/02 06:07:59;;;;;;;3.03;1.90;;;;;;;9.07;100.00;153689.97;5120143;27;20528;-75
2022/11/02 06:10:44;;;;;;;2.40;1.90;;;;;;;9.09;100.00;153695.13;5110054;28;20609;-76
2022/11/02 06:13:29;;;;;;;3.07;2.00;;;;;;;9.12;100.00;153702.88;5094137;28;20468;-75
2022/11/02 06:16:15;;;;;;;3.20;1.93;;;;;;;9.13;100.00;153704.19;5109977;28;20431;-76
2022/11/02 06:19:01;;;;;;;4.20;2.40;;;;;;;9.16;100.00;153713.22;5106552;28;20439;-76
2022/11/02 06:21:46;;;;;;;3.03;2.10;;;;;;;9.19;100.00;153720.97;5112590;28;20463;-76
2022/11/02 06:24:32;;;;;;;4.57;2.50;;;;;;;9.22;100.00;153727.44;5121836;28;20936;-76
2022/11/02 06:27:19;;;;;;;4.63;1.90;;;;;;;9.25;100.00;153733.91;5119860;28;20457;-76
2022/11/02 06:30:06;;;;;;;4.03;1.90;;;;;;;9.29;100.00;153744.28;5096233;28;20549;-76
2022/11/02 06:32:53;;;;;;;3.90;2.20;;;;;;;9.38;100.00;153767.53;5111100;28;20549;-76
2022/11/02 06:35:38;;;;;;;6.70;2.23;;;;;;;9.49;100.00;153796.00;5113287;28;20431;-76
2022/11/02 06:38:24;;;;;;;3.90;2.43;;;;;;;9.60;100.00;153824.47;5113758;28;20447;-76
2022/11/02 06:41:10;;;;;;;5.70;1.87;;;;;;;9.69;100.00;153849.03;5108063;27;20431;-75
2022/11/02 06:43:57;;;;;;;3.70;1.97;;;;;;;9.85;100.00;153889.16;5137194;27;20419;-76
2022/11/02 06:46:42;;;;;;;4.57;1.97;;;;;;;9.85;100.00;153887.88;5117828;27;20506;-75
2022/11/02 06:49:28;;;;;;;2.10;1.60;;;;;;;9.93;100.00;153908.59;5114293;28;20442;-75
2022/11/02 06:52:13;;;;;;;4.00;1.63;;;;;;;10.15;100.00;153965.56;5130723;27;20437;-76
2022/11/02 06:54:58;;;;;;;3.30;1.87;;;;;;;10.44;100.00;154040.63;5136717;27;20445;-76
2022/11/02 06:57:45;;;;;;;3.60;2.30;;;;;;;10.52;100.00;154061.34;5118119;27;20497;-75
2022/11/02 07:00:31;;;;;;;5.63;1.57;;;;;;;10.49;100.00;154053.59;5125405;27;20890;-76
2022/11/02 07:03:16;;;;;;;4.07;1.90;;;;;;;10.55;100.00;154067.84;5081102;28;20804;-76
2022/11/02 07:06:01;;;;;;;6.13;1.90;;;;;;;10.62;100.00;154087.25;5110092;28;20940;-76
2022/11/02 07:08:46;;;;;;;3.80;2.53;;;;;;;10.60;100.00;154082.06;5118260;27;20509;-76
2022/11/02 07:11:32;;;;;;;2.70;1.97;;;;;;;10.57;100.00;154073.00;5105227;27;20432;-75
2022/11/02 07:14:19;;;;;;;2.97;1.87;;;;;;;10.61;100.00;154084.69;5105370;28;20515;-89
2022/11/02 07:17:05;;;;;;;4.00;1.90;;;;;;;10.72;100.00;154113.13;5113797;28;20933;-89
2022/11/02 07:19:50;;;;;;;4.70;2.07;;;;;;;10.75;100.00;154120.91;5081419;27;20436;-89
2022/11/02 07:22:35;;;;;;;5.43;2.10;;;;;;;10.74;100.00;154118.34;5108965;28;20478;-89
2022/11/02 07:25:21;;;;;;;5.83;1.57;;;;;;;10.73;100.00;154115.75;5115959;28;20439;-89
2022/11/02 07:28:06;;;;;;;5.63;2.20;;;;;;;10.74;100.00;154118.34;5127612;27;21041;-90
2022/11/02 07:30:54;;;;;;;3.80;1.77;;;;;;;10.81;100.00;154136.47;5119016;27;20894;-90
2022/11/02 07:33:39;;;;;;;3.30;1.90;;;;;;;10.91;100.00;154161.06;5113972;28;20812;-89
2022/11/02 07:36:24;;;;;;;3.33;1.77;;;;;;;10.95;100.00;154171.44;5113458;27;20443;-90
2022/11/02 07:39:10;;;;;;;4.83;2.10;;;;;;;11.00;100.00;154184.38;5115107;28;20802;-90
2022/11/02 07:41:55;;;;;;;3.60;2.13;;;;;;;11.08;100.00;154203.81;5113468;28;20481;-89
2022/11/02 07:44:43;;;;;;;3.37;1.77;;;;;;;11.14;100.00;154219.38;5097133;27;20451;-90
2022/11/02 07:47:30;;;;;;;3.37;1.60;;;;;;;11.24;100.00;154245.25;5113803;28;20439;-90
2022/11/02 07:50:17;;;;;;;4.63;2.00;;;;;;;11.32;100.00;154267.31;5096752;28;20950;-90
2022/11/02 07:53:03;;;;;;;4.60;3.07;;;;;;;11.35;100.00;154273.78;5108749;28;20451;-90
2022/11/02 07:55:49;;;;;;;2.30;1.43;;;;;;;11.39;100.00;154284.13;5124599;27;20443;-90
2022/11/02 07:58:34;;;;;;;5.40;1.63;;;;;;;11.42;100.00;154291.91;5107904;28;20436;-90
2022/11/02 08:01:19;;;;;;;3.30;2.17;;;;;;;11.45;100.00;154300.97;5094260;28;20444;-90
2022/11/02 08:04:07;;;;;;;3.43;1.80;;;;;;;11.48;100.00;154308.75;5108091;27;20460;-90
2022/11/02 08:06:52;;;;;;;3.60;1.80;;;;;;;11.53;100.00;154321.72;5115134;28;20754;-90
2022/11/02 08:09:38;;;;;;;3.10;1.50;;;;;;;11.54;100.00;154323.03;5114381;28;20424;-90
2022/11/02 08:12:24;;;;;;;6.03;2.60;;;;;;;11.59;100.00;154335.97;5107793;28;20833;-90
2022/11/02 08:15:10;;;;;;;5.17;1.90;;;;;;;11.66;100.00;154352.78;5095543;28;20428;-90
2022/11/02 08:18:03;;;;;;;3.00;2.30;;;;;;;11.77;100.00;154382.66;5078583;28;20459;-90
2022/11/02 08:20:50;;;;;;;3.17;1.90;;;;;;;11.85;100.00;154403.41;5111280;28;20517;-90
2022/11/02 08:23:36;;;;;;;4.10;1.43;;;;;;;11.96;100.00;154431.94;5069874;28;20425;-90
2022/11/02 08:26:21;;;;;;;5.13;1.97;;;;;;;12.01;100.00;154443.59;5069335;28;21946;-90
2022/11/02 08:29:06;;;;;;;4.73;2.07;;;;;;;12.10;100.00;154468.19;5062753;28;20453;-90
2022/11/02 08:31:52;;;;;;;3.93;1.80;;;;;;;12.18;100.00;154487.63;5072456;28;20564;-90
2022/11/02 08:34:37;;;;;;;3.57;1.50;;;;;;;12.28;100.00;154512.31;5065667;28;20465;-90
2022/11/02 08:37:24;;;;;;;7.73;2.07;;;;;;;12.38;100.00;154538.22;5073736;28;20433;-90
2022/11/02 08:40:11;;;;;;;3.23;1.80;;;;;;;12.44;100.00;154555.09;5081295;28;20527;-90
2022/11/02 08:42:57;;;;;;;5.20;2.07;;;;;;;12.52;100.00;154574.53;5066344;28;20864;-90
2022/11/02 08:45:43;;;;;;;2.50;1.60;;;;;;;12.58;100.00;154590.06;5065815;28;20501;-89
2022/11/02 08:48:29;;;;;;;2.90;1.60;;;;;;;12.59;100.00;154592.69;5073740;28;20592;-90
2022/11/02 08:51:14;;;;;;;6.00;2.00;;;;;;;12.62;100.00;154600.47;5084831;28;20532;-90
2022/11/02 08:54:01;;;;;;;2.80;1.73;;;;;;;12.70;100.00;154621.22;5069684;28;20453;-90
2022/11/02 08:56:46;;;;;;;2.47;1.30;;;;;;;12.77;100.00;154639.38;5066817;28;20426;-89
2022/11/02 08:59:31;;;;;;;3.30;1.57;;;;;;;12.83;100.00;154654.94;5091177;28;20461;-90
2022/11/02 09:02:17;;;;;;;4.57;1.83;;;;;;;12.91;100.00;154674.41;5072883;28;20405;-90
2022/11/02 09:05:02;;;;;;;3.60;1.57;;;;;;;12.98;100.00;154692.53;5072600;28;20586;-88
2022/11/02 09:07:47;;;;;;;3.17;1.90;;;;;;;13.02;100.00;154704.25;5072477;28;20448;-89
2022/11/02 09:10:35;;;;;;;2.60;1.70;;;;;;;13.09;100.00;154721.13;5072002;28;21054;-90
2022/11/02 09:13:24;;;;;;;2.77;1.30;;;;;;;13.09;100.00;154721.13;5073620;28;20465;-88
2022/11/02 09:16:09;;;;;;;2.23;1.23;;;;;;;13.15;100.00;154736.72;5078219;28;20535;-90
2022/11/02 09:18:54;;;;;;;2.60;1.30;;;;;;;13.13;100.00;154731.53;5094117;28;20451;-90
2022/11/02 09:21:39;;;;;;;3.30;1.33;;;;;;;13.13;99.78;154732.78;5094396;28;20573;-90
2022/11/02 09:24:24;;;;;;;2.30;1.30;;;;;;;13.18;98.30;154745.81;5097900;28;20447;-90
2022/11/02 09:27:11;;;;;;;4.53;1.70;;;;;;;13.14;98.78;154734.09;5101747;28;20424;-90
2022/11/02 09:29:56;;;;;;;3.17;1.70;;;;;;;13.16;97.75;154739.28;5114343;28;20430;-89
2022/11/02 09:32:41;;;;;;;3.37;2.00;;;;;;;13.17;96.75;154743.22;5100639;28;20415;-89
2022/11/02 09:35:29;;;;;;;2.40;1.40;;;;;;;13.14;96.86;154735.41;5129332;27;20438;-89
2022/11/02 09:38:14;;;;;;;2.30;1.57;;;;;;;13.16;97.44;154739.28;5111663;27;20673;-90
2022/11/02 09:41:10;;;;;;;2.47;1.50;;;;;;;13.17;98.91;154743.22;5114352;28;20427;-90
2022/11/02 09:44:02;;;;;;;3.20;1.60;;;;;;;13.26;96.95;154766.53;5117877;27;20580;-90
2022/11/02 09:46:47;;;;;;;3.53;1.50;;;;;;;13.27;96.22;154767.84;5093568;28;20397;-90
2022/11/02 09:49:33;;;;;;;4.10;1.47;;;;;;;13.28;96.21;154771.75;5108913;28;20446;-90
2022/11/02 09:52:25;;;;;;;4.60;1.37;;;;;;;13.28;95.44;154771.75;5113135;28;20444;-89
2022/11/02 09:55:15;;;;;;;2.57;1.60;;;;;;;13.33;96.52;154783.44;5109451;28;20483;-90
2022/11/02 09:58:04;;;;;;;9.40;1.80;;;;;;;13.35;96.78;154789.91;5112833;28;20921;-90
2022/11/02 10:00:53;;;;;;;6.17;1.70;;;;;;;13.38;95.45;154797.69;5106466;28;20536;-90
2022/11/02 10:03:46;;;;;;;3.00;1.40;;;;;;;13.43;94.02;154810.66;5077822;28;20440;-89
2022/11/02 10:06:34;;;;;;;4.67;1.70;;;;;;;13.45;94.72;154814.53;5105608;28;20563;-90
2022/11/02 10:09:26;;;;;;;3.90;1.57;;;;;;;13.47;94.13;154818.47;5099598;28;20489;-90
2022/11/02 10:12:13;;;;;;;3.40;1.60;;;;;;;13.48;92.37;154821.03;5112983;28;20490;-90
2022/11/02 10:15:03;;;;;;;4.13;1.80;;;;;;;13.51;92.26;154828.81;5110002;28;20569;-90
2022/11/02 10:17:55;;;;;;;2.60;1.30;;;;;;;13.55;92.79;154839.22;5112856;28;20419;-90
2022/11/02 10:20:44;;;;;;;3.33;1.33;;;;;;;13.57;93.20;154844.41;5113540;28;20796;-90
2022/11/02 10:23:32;;;;;;;2.47;1.10;;;;;;;13.60;94.30;154852.22;5066651;28;21034;-90
2022/11/02 10:26:19;;;;;;;3.50;1.53;;;;;;;13.61;92.61;154856.06;5085665;28;20593;-90
2022/11/02 10:29:12;;;;;;;3.30;1.30;;;;;;;13.64;93.08;154862.56;5067581;28;20460;-90
2022/11/02 10:31:57;;;;;;;3.30;2.00;;;;;;;13.63;92.33;154860.00;5072795;28;20410;-90
2022/11/02 10:34:45;;;;;;;3.80;1.37;;;;;;;13.67;92.02;154870.34;5076024;28;20476;-90
2022/11/02 10:37:41;;;;;;;4.10;1.30;;;;;;;13.66;91.73;154869.06;5072370;28;20475;-90
2022/11/02 10:40:41;;;;;;;3.20;1.10;;;;;;;13.67;93.07;154870.34;5065955;28;20434;-90
2022/11/02 10:43:35;;;;;;;5.10;1.67;;;;;;;13.76;91.61;154893.75;5072453;28;20545;-90
2022/11/02 10:46:29;;;;;;;3.03;1.20;;;;;;;13.70;91.86;154879.47;5083619;28;20907;-89
2022/11/02 10:49:26;;;;;;;2.27;1.23;;;;;;;13.72;89.34;154884.63;5076819;28;21005;-90
2022/11/02 10:52:14;;;;;;;3.97;2.00;;;;;;;13.75;89.08;154892.44;5066792;28;20946;-89
2022/11/02 10:55:00;;;;;;;3.53;1.27;;;;;;;13.76;88.32;154893.75;5079457;28;20480;-89
2022/11/02 10:57:45;;;;;;;4.37;1.30;;;;;;;13.75;88.03;154892.44;5069841;28;20796;-89
2022/11/02 11:00:32;;;;;;;4.50;1.30;;;;;;;13.74;88.88;154889.81;5070561;28;20576;-89
2022/11/02 11:03:18;;;;;;;1.97;1.20;;;;;;;13.70;89.66;154879.47;5067189;28;20413;-89
2022/11/02 11:06:04;;;;;;;4.80;1.33;;;;;;;13.69;86.59;154876.84;5072403;28;20421;-90
2022/11/02 11:08:52;;;;;;;3.10;1.30;;;;;;;13.65;88.00;154866.50;5071408;28;20417;-89
2022/11/02 11:11:38;;;;;;;5.90;1.60;;;;;;;13.63;87.52;154860.00;5086838;28;20930;-88
2022/11/02 11:14:23;;;;;;;3.87;1.27;;;;;;;13.64;86.06;154862.56;5072971;28;20950;-89
2022/11/02 11:17:15;;;;;;;3.10;1.17;;;;;;;13.64;92.05;154862.56;5064246;28;20461;-89
2022/11/02 11:20:00;;;;;;;4.30;1.33;;;;;;;13.58;86.47;154847.03;5071877;28;20453;-89
2022/11/02 11:22:45;;;;;;;3.10;1.47;;;;;;;13.61;86.25;154856.06;5105036;28;20466;-89
2022/11/02 11:25:32;;;;;;;3.17;1.30;;;;;;;13.65;86.70;154865.19;5117139;28;20415;-89
2022/11/02 11:28:23;;;;;;;4.13;1.50;;;;;;;13.65;86.69;154865.19;5114914;27;20439;-89
2022/11/02 11:31:11;;;;;;;3.33;1.33;;;;;;;13.66;87.99;154867.78;5137569;27;20548;-89
2022/11/02 11:33:58;;;;;;;4.50;1.60;;;;;;;13.59;90.48;154849.59;5126334;27;20454;-89
2022/11/02 11:36:44;;;;;;;7.00;1.60;;;;;;;13.54;86.64;154837.91;5104247;28;20428;-89
2022/11/02 11:39:30;;;;;;;3.17;1.60;;;;;;;13.61;85.93;154856.06;5118807;27;20439;-89
2022/11/02 11:42:19;;;;;;;4.13;1.50;;;;;;;13.57;88.72;154844.41;5116093;28;20431;-89
2022/11/02 11:45:06;;;;;;;2.73;1.47;;;;;;;13.53;88.99;154834.06;5116441;28;21005;-89
2022/11/02 11:47:52;;;;;;;3.97;1.60;;;;;;;13.51;88.97;154828.81;5127942;27;20465;-88
2022/11/02 11:50:46;;;;;;;1.80;1.23;;;;;;;13.50;86.01;154826.25;5116094;27;20439;-89
2022/11/02 11:53:31;;;;;;;3.27;1.10;;;;;;;13.57;86.31;154844.41;5115818;28;20440;-89
2022/11/02 11:56:25;;;;;;;3.73;1.30;;;;;;;13.67;88.77;154870.34;5112013;27;20462;-89
2022/11/02 11:59:21;;;;;;;4.80;1.30;;;;;;;13.71;86.11;154880.78;5114658;28;20420;-88
2022/11/02 12:02:21;;;;;;;3.27;1.30;;;;;;;13.70;87.29;154878.16;5100405;28;20918;-89
2022/11/02 12:05:13;;;;;;;4.37;1.93;;;;;;;13.74;85.41;154888.56;5120147;27;20504;-89
2022/11/02 12:08:25;;;;;;;2.90;1.20;;;;;;;13.83;82.49;154911.91;5115801;27;20451;-89
2022/11/02 12:11:23;;;;;;;3.07;1.80;;;;;;;13.77;84.78;154896.31;5102517;28;20459;-89
2022/11/02 12:14:16;;;;;;;7.40;1.90;;;;;;;13.96;83.97;154945.66;5109789;28;20520;-89
2022/11/02 12:17:23;;;;;;;4.03;1.50;;;;;;;13.99;83.30;154953.44;5099544;28;20399;-89
2022/11/02 12:20:18;;;;;;;3.43;1.47;;;;;;;14.07;81.19;154972.91;5115799;28;20572;-89
2022/11/02 12:23:11;;;;;;;4.03;2.00;;;;;;;14.18;83.44;155001.50;5111865;27;21098;-89
2022/11/02 12:26:06;;;;;;;1.50;1.17;;;;;;;14.21;82.39;155010.59;5114912;28;20800;-88
2022/11/02 12:28:58;;;;;;;2.27;1.40;;;;;;;14.24;79.39;155018.38;5114380;28;20440;-89
2022/11/02 12:31:45;;;;;;;4.73;2.00;;;;;;;14.15;78.21;154995.00;5109077;28;20525;-89
2022/11/02 12:34:44;;;;;;;2.73;1.50;;;;;;;14.08;78.17;154976.84;5114452;28;20812;-88
2022/11/02 12:37:48;;;;;;;3.83;1.10;;;;;;;13.97;81.10;154949.56;5114924;28;20898;-88
2022/11/02 12:40:43;;;;;;;3.53;1.63;;;;;;;13.88;79.09;154924.88;5114828;28;20474;-88
2022/11/02 12:43:38;;;;;;;4.50;1.30;;;;;;;13.77;76.93;154896.31;5094812;28;20977;-88
2022/11/02 12:46:30;;;;;;;2.77;1.30;;;;;;;13.74;79.20;154889.81;5113079;28;20430;-88
2022/11/02 12:49:36;;;;;;;2.70;1.53;;;;;;;13.69;78.02;154875.53;5108699;28;20440;-88
2022/11/02 12:52:30;;;;;;;3.83;1.40;;;;;;;13.66;76.93;154867.78;5135369;27;20445;-88
2022/11/02 12:55:18;;;;;;;3.93;1.60;;;;;;;13.66;76.46;154869.06;5099188;28;20609;-88
2022/11/02 12:58:06;;;;;;;6.07;1.43;;;;;;;13.70;77.44;154878.16;5114343;28;20557;-88
2022/11/02 13:00:55;;;;;;;4.10;2.20;;;;;;;13.67;78.84;154870.34;5110795;27;20449;-88
2022/11/02 13:03:47;;;;;;;2.77;1.20;;;;;;;13.71;78.07;154880.78;5111994;28;20415;-88
2022/11/02 13:06:38;;;;;;;3.67;1.50;;;;;;;13.61;79.90;154856.06;5099408;28;20545;-88
2022/11/02 13:09:26;;;;;;;5.67;1.80;;;;;;;13.61;80.84;154854.81;5116132;27;20952;-87
2022/11/02 13:12:14;;;;;;;2.43;1.20;;;;;;;13.63;78.10;154860.00;5117940;27;20476;-87
2022/11/02 13:15:01;;;;;;;4.27;1.37;;;;;;;13.62;75.03;154858.69;5112783;28;20808;-87
2022/11/02 13:17:49;;;;;;;4.03;1.80;;;;;;;13.64;75.51;154862.56;5103023;27;20497;-87